San Antonio, Texas
Traffic Map
Current Weather Conditions
San Antonio, Texas
Scattered Clouds
Scattered Clouds
33°
Feels Like: 37°
Wind Chill: 33° Ceiling: Unl
Heat Index: 37° Visibility: 10mi
Dew Point: 23° Wind: 3mph
Humidity: 54% Direction: ° ()
Pressure: 29.96in Gusts: 0mph
Raw Report DataKSKF 281858Z VRB03KT 10SM SCT039 33/23 A2996 RMK AO2A SLP137 T03290226 $
Traffic Incident Summary
Active as of:
Severity:
Category:
InformationThere was an issue retrieving the traffic information for this location. Please try a different location or try again shortly.
Advertisements
Track Severe Weather on mobile